Time;durP1;ratioP1;P1;durP2;ratioP2;P2;SDS_P1;SDS_P2;PMS_P1;PMS_P2;Temp;Humidity;BMP_temperature;BMP_pressure;BME280_temperature;BME280_humidity;BME280_pressure;Samples;Min_cycle;Max_cycle;Signal;HPM_P1;HPM_P2
2022/11/12 00:01:03;;;;;;;19.52;10.30;;;;;;;;;;4928673;29;20507;-74
2022/11/12 00:03:29;;;;;;;15.15;10.20;;;;;;;;;;4945105;28;20477;-79
2022/11/12 00:05:55;;;;;;;15.85;10.55;;;;;;;;;;4944276;28;20038;-76
2022/11/12 00:08:21;;;;;;;14.50;9.73;;;;;;;;;;4951438;28;20091;-75
2022/11/12 00:10:47;;;;;;;15.93;11.40;;;;;;;;;;4948186;28;20058;-75
2022/11/12 00:13:14;;;;;;;20.23;11.00;;;;;;;;;;4950474;28;20159;-75
2022/11/12 00:15:40;;;;;;;19.38;10.63;;;;;;;;;;4960163;28;20031;-78
2022/11/12 00:18:06;;;;;;;17.58;10.25;;;;;;;;;;4946233;28;20484;-74
2022/11/12 00:20:32;;;;;;;16.48;10.90;;;;;;;;;;4970086;28;20062;-74
2022/11/12 00:22:58;;;;;;;19.45;11.35;;;;;;;;;;4944213;28;20496;-78
2022/11/12 00:25:25;;;;;;;19.02;10.80;;;;;;;;;;4934037;29;20066;-75
2022/11/12 00:27:51;;;;;;;18.63;10.68;;;;;;;;;;4945471;28;20084;-77
2022/11/12 00:30:17;;;;;;;17.20;10.00;;;;;;;;;;4946429;28;20501;-75
2022/11/12 00:32:43;;;;;;;14.98;10.43;;;;;;;;;;4951146;28;20036;-79
2022/11/12 00:35:11;;;;;;;19.60;10.88;;;;;;;;;;4942630;28;20031;-78
2022/11/12 00:37:37;;;;;;;15.40;10.55;;;;;;;;;;4960577;28;20059;-77
2022/11/12 00:40:03;;;;;;;14.95;10.32;;;;;;;;;;4947065;28;20034;-84
2022/11/12 00:42:29;;;;;;;18.25;11.13;;;;;;;;;;4956675;28;20068;-84
2022/11/12 00:44:55;;;;;;;15.75;10.63;;;;;;;;;;4955111;28;20035;-78
2022/11/12 00:47:21;;;;;;;16.00;11.45;;;;;;;;;;4951170;28;20035;-77
2022/11/12 00:49:47;;;;;;;16.08;11.45;;;;;;;;;;4943792;28;20043;-76
2022/11/12 00:52:13;;;;;;;19.10;11.02;;;;;;;;;;4957549;28;20038;-76
2022/11/12 00:54:39;;;;;;;19.33;11.48;;;;;;;;;;4946828;28;20362;-77
2022/11/12 00:57:05;;;;;;;21.75;12.13;;;;;;;;;;4948205;28;20484;-82
2022/11/12 00:59:31;;;;;;;19.42;10.77;;;;;;;;;;4927698;29;20039;-77
2022/11/12 01:01:57;;;;;;;17.17;11.05;;;;;;;;;;4952614;28;20552;-77
2022/11/12 01:04:23;;;;;;;18.45;10.48;;;;;;;;;;4946859;28;20031;-78
2022/11/12 01:06:49;;;;;;;15.20;10.45;;;;;;;;;;4952025;28;20050;-78
2022/11/12 01:09:16;;;;;;;15.55;10.90;;;;;;;;;;4943244;28;20050;-77
2022/11/12 01:11:42;;;;;;;15.35;10.77;;;;;;;;;;4935130;29;20042;-77
2022/11/12 01:14:08;;;;;;;18.67;11.18;;;;;;;;;;4926335;29;20130;-81
2022/11/12 01:16:35;;;;;;;17.08;11.15;;;;;;;;;;4951549;28;20092;-76
2022/11/12 01:19:02;;;;;;;21.42;12.77;;;;;;;;;;4946699;28;20031;-76
2022/11/12 01:21:29;;;;;;;19.70;11.23;;;;;;;;;;4947388;28;20040;-76
2022/11/12 01:23:59;;;;;;;17.88;12.25;;;;;;;;;;4945562;28;20576;-80
2022/11/12 01:26:29;;;;;;;22.52;13.35;;;;;;;;;;4955589;28;20030;-76
2022/11/12 01:28:56;;;;;;;17.17;12.43;;;;;;;;;;4943156;28;20042;-77
2022/11/12 01:31:24;;;;;;;18.20;13.18;;;;;;;;;;4937789;28;20049;-75
2022/11/12 01:33:53;;;;;;;18.20;12.88;;;;;;;;;;4949246;28;20524;-78
2022/11/12 01:36:19;;;;;;;19.38;12.60;;;;;;;;;;4951577;28;20106;-76
2022/11/12 01:38:45;;;;;;;21.15;12.68;;;;;;;;;;4950650;28;20090;-83
2022/11/12 01:41:13;;;;;;;17.33;12.50;;;;;;;;;;4961599;28;20046;-77
2022/11/12 01:43:39;;;;;;;17.65;12.60;;;;;;;;;;4954957;29;20114;-75
2022/11/12 01:46:10;;;;;;;20.83;11.43;;;;;;;;;;4946853;28;20040;-76
2022/11/12 01:48:42;;;;;;;17.80;12.02;;;;;;;;;;4935981;29;20545;-76
2022/11/12 01:51:09;;;;;;;17.27;12.37;;;;;;;;;;4947902;28;20031;-81
2022/11/12 01:53:37;;;;;;;18.63;12.23;;;;;;;;;;4945689;28;20050;-83
2022/11/12 01:56:05;;;;;;;22.42;14.10;;;;;;;;;;4950757;28;20036;-79
2022/11/12 01:58:32;;;;;;;18.98;12.55;;;;;;;;;;4947042;28;20110;-77
2022/11/12 02:01:00;;;;;;;17.17;12.38;;;;;;;;;;4946336;28;20024;-78
2022/11/12 02:03:26;;;;;;;18.25;13.02;;;;;;;;;;4937987;29;20121;-76
2022/11/12 02:06:11;;;;;;;17.15;11.70;;;;;;;;;;4947119;28;20122;-77
2022/11/12 02:08:38;;;;;;;18.77;11.65;;;;;;;;;;4960938;28;20030;-77
2022/11/12 02:11:12;;;;;;;20.75;13.82;;;;;;;;;;4950729;28;20050;-78
2022/11/12 02:13:56;;;;;;;22.05;14.77;;;;;;;;;;4964043;28;20039;-86
2022/11/12 02:16:23;;;;;;;16.83;12.55;;;;;;;;;;4930565;28;20062;-74
2022/11/12 02:18:49;;;;;;;24.25;13.63;;;;;;;;;;4965023;28;20033;-75
2022/11/12 02:21:18;;;;;;;17.83;12.43;;;;;;;;;;4955079;28;20039;-81
2022/11/12 02:23:44;;;;;;;19.70;13.20;;;;;;;;;;4950509;28;20031;-75
2022/11/12 02:26:10;;;;;;;22.65;14.98;;;;;;;;;;4945114;28;20091;-75
2022/11/12 02:28:36;;;;;;;18.48;13.43;;;;;;;;;;4945665;28;20038;-78
2022/11/12 02:31:02;;;;;;;22.05;13.82;;;;;;;;;;4963493;28;20043;-75
2022/11/12 02:33:28;;;;;;;20.30;13.52;;;;;;;;;;4937684;29;20043;-74
2022/11/12 02:35:54;;;;;;;27.10;15.25;;;;;;;;;;4950629;28;20046;-76
2022/11/12 02:38:20;;;;;;;21.65;15.10;;;;;;;;;;4952281;28;20054;-74
2022/11/12 02:40:46;;;;;;;22.48;14.73;;;;;;;;;;4950517;28;20078;-75
2022/11/12 02:43:12;;;;;;;21.35;15.25;;;;;;;;;;4952107;28;20098;-75
2022/11/12 02:45:38;;;;;;;22.00;13.88;;;;;;;;;;4950665;28;20038;-76
2022/11/12 02:48:04;;;;;;;20.67;13.45;;;;;;;;;;4952512;28;20039;-75
2022/11/12 02:50:30;;;;;;;19.83;13.65;;;;;;;;;;4951589;28;20377;-75
2022/11/12 02:52:56;;;;;;;22.90;14.55;;;;;;;;;;4935118;28;20464;-76
2022/11/12 02:55:22;;;;;;;25.45;15.35;;;;;;;;;;4950280;28;20031;-76
2022/11/12 02:57:48;;;;;;;22.95;14.77;;;;;;;;;;4952496;28;20047;-75
2022/11/12 03:00:14;;;;;;;19.42;12.80;;;;;;;;;;4955580;28;20054;-78
2022/11/12 03:02:57;;;;;;;21.27;14.05;;;;;;;;;;4918554;28;20048;-79
2022/11/12 03:05:23;;;;;;;;;;;;;;;;;;4918922;29;20093;-76
2022/11/12 03:07:49;;;;;;;25.73;14.10;;;;;;;;;;4930530;29;20325;-76
2022/11/12 03:10:15;;;;;;;22.42;15.45;;;;;;;;;;4931779;29;20039;-80
2022/11/12 03:12:41;;;;;;;24.45;14.95;;;;;;;;;;4921271;29;20036;-76
2022/11/12 03:15:07;;;;;;;22.92;13.93;;;;;;;;;;4932087;29;20043;-76
2022/11/12 03:17:34;;;;;;;27.20;18.00;;;;;;;;;;4928536;29;20059;-81
2022/11/12 03:20:00;;;;;;;20.23;14.30;;;;;;;;;;4931183;29;20034;-85
2022/11/12 03:22:26;;;;;;;25.20;14.93;;;;;;;;;;4929968;29;20071;-75
2022/11/12 03:24:52;;;;;;;58.58;38.47;;;;;;;;;;4923508;29;20043;-77
2022/11/12 03:27:18;;;;;;;23.38;15.43;;;;;;;;;;4933218;29;20046;-75
2022/11/12 03:29:44;;;;;;;66.38;43.20;;;;;;;;;;4933474;29;20047;-75
2022/11/12 03:32:10;;;;;;;30.10;16.80;;;;;;;;;;4924099;29;20031;-75
2022/11/12 03:34:36;;;;;;;25.10;15.82;;;;;;;;;;4932700;29;20043;-78
2022/11/12 03:37:02;;;;;;;20.65;15.70;;;;;;;;;;4927394;29;20047;-75
2022/11/12 03:39:28;;;;;;;22.58;15.80;;;;;;;;;;4929107;29;20174;-74
2022/11/12 03:41:54;;;;;;;24.63;17.30;;;;;;;;;;4934735;29;20032;-76
2022/11/12 03:44:20;;;;;;;23.67;16.52;;;;;;;;;;4927014;29;20088;-78
2022/11/12 03:46:46;;;;;;;26.73;16.80;;;;;;;;;;4936155;29;20058;-74
2022/11/12 03:49:12;;;;;;;29.00;17.20;;;;;;;;;;4924198;29;20157;-74
2022/11/12 03:51:38;;;;;;;21.88;15.32;;;;;;;;;;4933466;29;20044;-75
2022/11/12 03:54:05;;;;;;;24.48;14.93;;;;;;;;;;4922941;29;20484;-75
2022/11/12 03:56:31;;;;;;;22.92;16.08;;;;;;;;;;4931631;29;20184;-74
2022/11/12 03:58:57;;;;;;;23.55;16.25;;;;;;;;;;4927253;29;20067;-78
2022/11/12 04:01:23;;;;;;;22.92;16.10;;;;;;;;;;4931531;28;20035;-75
2022/11/12 04:03:49;;;;;;;21.40;15.65;;;;;;;;;;4933637;29;20039;-74
2022/11/12 04:09:00;;;;;;;24.90;16.52;;;;;;;;;;4926318;29;20081;-76
2022/11/12 04:11:26;;;;;;;31.83;17.20;;;;;;;;;;4938571;29;20393;-76
2022/11/12 04:13:52;;;;;;;23.20;17.85;;;;;;;;;;4933030;29;20068;-81
2022/11/12 04:21:55;;;;;;;19.25;14.68;;;;;;;;;;4937011;29;20042;-74
2022/11/12 04:27:28;;;;;;;30.10;17.48;;;;;;;;;;4928602;29;20099;-75
2022/11/12 04:32:45;;;;;;;54.13;19.33;;;;;;;;;;4924213;29;20104;-76
2022/11/12 04:35:11;;;;;;;41.65;20.63;;;;;;;;;;4921956;29;20038;-76
2022/11/12 04:37:44;;;;;;;45.17;20.40;;;;;;;;;;4932569;29;20027;-77
2022/11/12 04:45:47;;;;;;;83.63;22.92;;;;;;;;;;4927462;29;20437;-76
2022/11/12 04:48:13;;;;;;;86.90;23.48;;;;;;;;;;4929821;29;20060;-85
2022/11/12 04:50:40;;;;;;;118.45;25.63;;;;;;;;;;4929984;29;20046;-78
2022/11/12 04:53:06;;;;;;;96.68;26.27;;;;;;;;;;4932390;29;20404;-76
2022/11/12 04:55:32;;;;;;;96.50;23.58;;;;;;;;;;4933523;29;20538;-75
2022/11/12 04:57:58;;;;;;;115.43;26.55;;;;;;;;;;4933429;29;20031;-80
2022/11/12 05:00:25;;;;;;;117.25;29.75;;;;;;;;;;4929699;29;20134;-75
2022/11/12 05:02:51;;;;;;;106.05;24.55;;;;;;;;;;4932751;28;20047;-75
2022/11/12 05:05:17;;;;;;;127.57;25.80;;;;;;;;;;4926735;29;20507;-74
2022/11/12 05:07:43;;;;;;;120.78;25.33;;;;;;;;;;4943224;29;20044;-75
2022/11/12 05:10:09;;;;;;;128.20;26.23;;;;;;;;;;4935453;29;20071;-75
2022/11/12 05:12:35;;;;;;;95.40;25.60;;;;;;;;;;4926369;29;20038;-77
2022/11/12 05:15:01;;;;;;;148.60;29.23;;;;;;;;;;4932792;29;20380;-76
2022/11/12 05:17:28;;;;;;;171.25;28.27;;;;;;;;;;4944319;29;20044;-78
2022/11/12 05:19:54;;;;;;;123.25;28.73;;;;;;;;;;4929019;29;20531;-76
2022/11/12 05:22:20;;;;;;;124.32;27.23;;;;;;;;;;4918322;29;20062;-75
2022/11/12 05:24:46;;;;;;;93.50;28.00;;;;;;;;;;4929315;29;20396;-73
2022/11/12 05:27:16;;;;;;;108.05;27.20;;;;;;;;;;4936789;29;20027;-76
2022/11/12 05:29:42;;;;;;;80.45;27.40;;;;;;;;;;4919752;29;20035;-75
2022/11/12 05:32:10;;;;;;;100.45;28.98;;;;;;;;;;4933292;29;20032;-75
2022/11/12 05:34:36;;;;;;;85.03;29.13;;;;;;;;;;4931961;29;20499;-75
2022/11/12 05:37:03;;;;;;;88.00;28.23;;;;;;;;;;4956125;29;20047;-75
2022/11/12 05:39:29;;;;;;;77.88;26.92;;;;;;;;;;4937505;29;20024;-77
2022/11/12 05:41:55;;;;;;;70.55;26.55;;;;;;;;;;4932390;29;20063;-76
2022/11/12 05:44:21;;;;;;;99.03;28.15;;;;;;;;;;4928149;29;20528;-75
2022/11/12 05:46:49;;;;;;;64.35;26.77;;;;;;;;;;4934988;29;20031;-74
2022/11/12 05:49:15;;;;;;;79.43;26.30;;;;;;;;;;4932656;29;20036;-75
2022/11/12 05:51:41;;;;;;;102.90;29.98;;;;;;;;;;4922203;29;20465;-75
2022/11/12 05:54:07;;;;;;;89.90;29.13;;;;;;;;;;4934923;29;20034;-79
2022/11/12 05:56:34;;;;;;;102.93;28.10;;;;;;;;;;4928193;29;20035;-75
2022/11/12 05:59:01;;;;;;;85.25;26.67;;;;;;;;;;4933737;29;20042;-76
2022/11/12 06:01:27;;;;;;;87.80;27.13;;;;;;;;;;4934408;28;20469;-77
2022/11/12 06:03:53;;;;;;;85.30;28.00;;;;;;;;;;4951304;28;20019;-76
2022/11/12 06:06:19;;;;;;;89.45;28.00;;;;;;;;;;4943792;28;20066;-75
2022/11/12 06:08:45;;;;;;;99.15;29.25;;;;;;;;;;4957188;28;20031;-78
2022/11/12 06:11:11;;;;;;;86.47;29.58;;;;;;;;;;4946046;28;20452;-76
2022/11/12 06:13:37;;;;;;;83.90;27.95;;;;;;;;;;4966128;28;20054;-75
2022/11/12 06:16:03;;;;;;;87.68;26.02;;;;;;;;;;4958857;28;20102;-79
2022/11/12 06:18:29;;;;;;;84.68;26.27;;;;;;;;;;4954388;28;20449;-74
2022/11/12 06:21:18;;;;;;;65.75;26.08;;;;;;;;;;4949114;28;20090;-75
2022/11/12 06:23:44;;;;;;;70.75;28.48;;;;;;;;;;4949816;28;20027;-75
2022/11/12 06:26:10;;;;;;;71.78;26.48;;;;;;;;;;4955357;28;20037;-75
2022/11/12 06:28:36;;;;;;;60.30;27.83;;;;;;;;;;4962925;28;20385;-80
2022/11/12 06:31:02;;;;;;;75.22;27.60;;;;;;;;;;4949918;28;20046;-74
2022/11/12 06:33:28;;;;;;;90.50;27.30;;;;;;;;;;4948775;28;20043;-74
2022/11/12 06:36:05;;;;;;;99.93;26.42;;;;;;;;;;4964334;28;20046;-78
2022/11/12 06:38:51;;;;;;;78.68;27.42;;;;;;;;;;4945127;28;20031;-74
2022/11/12 06:41:17;;;;;;;65.45;26.88;;;;;;;;;;4959083;28;20031;-74
2022/11/12 06:43:43;;;;;;;77.60;25.65;;;;;;;;;;4951089;28;20376;-75
2022/11/12 06:46:14;;;;;;;72.95;26.80;;;;;;;;;;4949038;28;20039;-75
2022/11/12 06:48:40;;;;;;;97.93;26.20;;;;;;;;;;4962919;28;20038;-74
2022/11/12 06:51:11;;;;;;;90.32;28.02;;;;;;;;;;4960879;28;20031;-74
2022/11/12 06:53:37;;;;;;;93.93;27.02;;;;;;;;;;4950956;28;20041;-74
2022/11/12 06:56:05;;;;;;;82.80;26.75;;;;;;;;;;4959785;28;20039;-75
2022/11/12 06:58:31;;;;;;;81.45;25.25;;;;;;;;;;4946877;28;20555;-75
2022/11/12 07:00:57;;;;;;;94.97;26.38;;;;;;;;;;4966003;28;20053;-75
2022/11/12 07:03:23;;;;;;;86.45;27.27;;;;;;;;;;4950741;28;20141;-74
2022/11/12 07:05:49;;;;;;;118.32;27.90;;;;;;;;;;4952819;28;20018;-75
2022/11/12 07:08:15;;;;;;;81.60;29.77;;;;;;;;;;4929247;28;20543;-75
2022/11/12 07:10:41;;;;;;;103.60;30.80;;;;;;;;;;4949458;28;20416;-77
2022/11/12 07:13:07;;;;;;;88.20;28.63;;;;;;;;;;4933510;29;20047;-75
2022/11/12 07:15:33;;;;;;;86.50;28.00;;;;;;;;;;4953440;29;20031;-74
2022/11/12 07:17:59;;;;;;;86.82;29.23;;;;;;;;;;4943314;28;20353;-74
2022/11/12 07:20:25;;;;;;;99.18;28.88;;;;;;;;;;4954986;28;20431;-77
2022/11/12 07:22:51;;;;;;;80.57;26.60;;;;;;;;;;4942414;28;20035;-80
2022/11/12 07:25:17;;;;;;;117.85;28.25;;;;;;;;;;4951755;28;20388;-74
2022/11/12 07:27:43;;;;;;;177.38;30.50;;;;;;;;;;4943536;28;20432;-76
2022/11/12 07:30:10;;;;;;;145.13;29.98;;;;;;;;;;4948822;28;20039;-75
2022/11/12 07:32:36;;;;;;;117.50;35.10;;;;;;;;;;4944324;28;20044;-80
2022/11/12 07:35:02;;;;;;;115.50;44.83;;;;;;;;;;4944529;28;20058;-78
2022/11/12 07:37:28;;;;;;;99.75;31.05;;;;;;;;;;4944579;28;20035;-75
2022/11/12 07:39:54;;;;;;;74.70;28.90;;;;;;;;;;4947426;28;20043;-77
2022/11/12 07:42:20;;;;;;;91.70;33.03;;;;;;;;;;4942531;28;20043;-78
2022/11/12 07:44:46;;;;;;;71.93;29.10;;;;;;;;;;4928443;29;20070;-75
2022/11/12 07:47:12;;;;;;;107.03;34.17;;;;;;;;;;4963449;28;20093;-76
2022/11/12 07:49:39;;;;;;;90.00;32.20;;;;;;;;;;4935562;29;20070;-75
2022/11/12 07:52:05;;;;;;;95.20;33.00;;;;;;;;;;4952069;28;20042;-74
2022/11/12 07:54:31;;;;;;;73.82;29.95;;;;;;;;;;4954437;28;20480;-75
2022/11/12 07:56:57;;;;;;;130.43;33.55;;;;;;;;;;4936021;29;20070;-76
2022/11/12 07:59:23;;;;;;;96.25;32.42;;;;;;;;;;4948757;28;20121;-75
2022/11/12 08:01:49;;;;;;;98.15;32.50;;;;;;;;;;4951309;28;20111;-76
2022/11/12 08:04:15;;;;;;;88.07;33.92;;;;;;;;;;4921817;28;20098;-75
2022/11/12 08:06:42;;;;;;;99.60;35.13;;;;;;;;;;4942484;29;20388;-81
2022/11/12 08:09:09;;;;;;;102.45;34.25;;;;;;;;;;4926990;29;20043;-79
2022/11/12 08:11:35;;;;;;;92.13;33.78;;;;;;;;;;4943388;29;20379;-79
2022/11/12 08:14:02;;;;;;;104.53;34.72;;;;;;;;;;4934483;29;20114;-76
2022/11/12 08:16:28;;;;;;;101.53;34.42;;;;;;;;;;4930752;29;20039;-74
2022/11/12 08:18:54;;;;;;;93.32;33.50;;;;;;;;;;4914845;29;20031;-80
2022/11/12 08:21:20;;;;;;;109.88;33.67;;;;;;;;;;4927051;29;20303;-76
2022/11/12 08:23:47;;;;;;;123.30;36.58;;;;;;;;;;4925539;29;20032;-78
2022/11/12 08:26:14;;;;;;;86.72;32.38;;;;;;;;;;4932250;29;20126;-75
2022/11/12 08:28:40;;;;;;;102.90;42.75;;;;;;;;;;4922193;28;20153;-77
2022/11/12 08:31:10;;;;;;;162.63;37.22;;;;;;;;;;4932026;29;20381;-75
2022/11/12 08:33:36;;;;;;;154.52;36.67;;;;;;;;;;4932277;29;20027;-74
2022/11/12 08:36:03;;;;;;;121.30;36.40;;;;;;;;;;4935451;29;20031;-80
2022/11/12 08:38:29;;;;;;;119.88;35.72;;;;;;;;;;4935394;29;20031;-76
2022/11/12 08:40:55;;;;;;;130.07;39.58;;;;;;;;;;4928965;28;20079;-76
2022/11/12 08:43:21;;;;;;;111.43;35.47;;;;;;;;;;4936654;29;20087;-79
2022/11/12 08:45:48;;;;;;;125.63;36.60;;;;;;;;;;4932353;29;20027;-83
2022/11/12 08:48:14;;;;;;;143.73;37.08;;;;;;;;;;4953429;29;20039;-78
2022/11/12 08:50:41;;;;;;;121.25;37.92;;;;;;;;;;4936201;29;20525;-75
2022/11/12 08:53:09;;;;;;;139.80;36.97;;;;;;;;;;4936369;29;20047;-74
2022/11/12 08:55:35;;;;;;;123.15;39.50;;;;;;;;;;4931824;29;20705;-75
2022/11/12 08:58:02;;;;;;;179.50;40.35;;;;;;;;;;4931904;29;20400;-75
2022/11/12 09:00:36;;;;;;;176.38;42.08;;;;;;;;;;4918847;29;20551;-77
2022/11/12 09:03:03;;;;;;;133.18;53.45;;;;;;;;;;4943544;28;20961;-78
2022/11/12 09:05:30;;;;;;;162.20;52.20;;;;;;;;;;4944951;28;20060;-76
2022/11/12 09:07:57;;;;;;;139.30;45.08;;;;;;;;;;4955892;29;20031;-78
2022/11/12 09:10:23;;;;;;;164.23;42.00;;;;;;;;;;4944408;28;20075;-77
2022/11/12 09:12:52;;;;;;;183.38;45.30;;;;;;;;;;4954429;28;20047;-76
2022/11/12 09:15:19;;;;;;;132.10;42.45;;;;;;;;;;4950534;28;20035;-76
2022/11/12 09:17:45;;;;;;;133.35;45.15;;;;;;;;;;4941995;28;20039;-75
2022/11/12 09:20:11;;;;;;;191.32;46.28;;;;;;;;;;4960315;28;20046;-76
2022/11/12 09:22:37;;;;;;;198.88;50.78;;;;;;;;;;4948105;28;20054;-76
2022/11/12 09:25:04;;;;;;;129.43;43.88;;;;;;;;;;4954577;28;20035;-76
2022/11/12 09:27:30;;;;;;;136.52;42.30;;;;;;;;;;4935527;28;20039;-76
2022/11/12 09:29:56;;;;;;;135.70;44.90;;;;;;;;;;4933625;29;20062;-76
2022/11/12 09:32:22;;;;;;;143.18;41.80;;;;;;;;;;4964799;28;20453;-77
2022/11/12 09:34:50;;;;;;;136.30;40.97;;;;;;;;;;4945880;28;20032;-75
2022/11/12 09:37:16;;;;;;;152.23;40.47;;;;;;;;;;4949991;28;20053;-81
2022/11/12 09:39:42;;;;;;;94.95;33.55;;;;;;;;;;4952235;28;20392;-76
2022/11/12 09:42:09;;;;;;;152.25;36.75;;;;;;;;;;4948345;28;20122;-75
2022/11/12 09:44:37;;;;;;;169.30;36.42;;;;;;;;;;4945087;28;20361;-75
2022/11/12 09:47:06;;;;;;;140.88;33.35;;;;;;;;;;4941174;28;20031;-75
2022/11/12 09:49:36;;;;;;;153.43;32.75;;;;;;;;;;4948650;28;20075;-78
2022/11/12 09:52:16;;;;;;;116.03;32.60;;;;;;;;;;4945776;28;20389;-75
2022/11/12 09:54:42;;;;;;;95.75;31.10;;;;;;;;;;4946954;28;20028;-87
2022/11/12 09:57:10;;;;;;;128.18;32.60;;;;;;;;;;4936007;28;20092;-78
2022/11/12 09:59:39;;;;;;;97.93;33.83;;;;;;;;;;4953870;28;20031;-74
2022/11/12 10:02:11;;;;;;;102.30;36.13;;;;;;;;;;4917133;29;20130;-77
2022/11/12 10:04:37;;;;;;;86.88;40.45;;;;;;;;;;4950700;28;20054;-82
2022/11/12 10:07:08;;;;;;;115.47;39.22;;;;;;;;;;4926790;28;20146;-76
2022/11/12 10:09:40;;;;;;;132.75;41.85;;;;;;;;;;4945104;28;20070;-78
2022/11/12 10:12:30;;;;;;;103.72;34.78;;;;;;;;;;4953050;28;20055;-76
2022/11/12 10:14:56;;;;;;;87.75;33.28;;;;;;;;;;4948076;28;20578;-77
2022/11/12 10:17:41;;;;;;;89.78;35.53;;;;;;;;;;4945454;29;20105;-76
2022/11/12 10:20:17;;;;;;;99.13;36.67;;;;;;;;;;4946384;28;20032;-77
2022/11/12 10:23:02;;;;;;;94.55;33.88;;;;;;;;;;4945852;28;20102;-74
2022/11/12 10:25:29;;;;;;;82.43;33.72;;;;;;;;;;4945324;28;20035;-73
2022/11/12 10:27:55;;;;;;;88.82;31.38;;;;;;;;;;4952305;28;20034;-76
2022/11/12 10:30:23;;;;;;;86.68;33.05;;;;;;;;;;4932743;28;20111;-86
2022/11/12 10:32:49;;;;;;;70.68;30.27;;;;;;;;;;4949802;28;20480;-81
2022/11/12 10:35:17;;;;;;;73.38;31.33;;;;;;;;;;4956029;28;20396;-82
2022/11/12 10:37:52;;;;;;;85.55;33.55;;;;;;;;;;4957187;28;20030;-82
2022/11/12 10:40:21;;;;;;;73.45;32.20;;;;;;;;;;4953722;28;20035;-75
2022/11/12 10:42:58;;;;;;;73.57;32.75;;;;;;;;;;4963573;28;20388;-74
2022/11/12 10:45:24;;;;;;;61.22;33.97;;;;;;;;;;4932040;28;20046;-74
2022/11/12 10:47:50;;;;;;;80.30;32.05;;;;;;;;;;4951815;28;20118;-74
2022/11/12 10:50:19;;;;;;;73.18;32.95;;;;;;;;;;4948394;28;20417;-74
2022/11/12 10:52:59;;;;;;;67.30;31.38;;;;;;;;;;4951212;28;20361;-76
2022/11/12 10:55:27;;;;;;;67.45;33.38;;;;;;;;;;4943777;28;20392;-78
2022/11/12 10:58:11;;;;;;;70.82;34.83;;;;;;;;;;4950327;28;20111;-79
2022/11/12 11:00:54;;;;;;;80.35;44.28;;;;;;;;;;4944945;28;20106;-75
2022/11/12 11:03:20;;;;;;;;;;;;;;;;;;4946617;28;20176;-75
2022/11/12 11:05:54;;;;;;;91.30;36.13;;;;;;;;;;4936832;29;19997;-76
2022/11/12 11:08:41;;;;;;;69.72;30.45;;;;;;;;;;4936710;29;20043;-76
2022/11/12 11:11:17;;;;;;;57.90;31.70;;;;;;;;;;4935972;29;20123;-85
2022/11/12 11:13:43;;;;;;;62.40;30.10;;;;;;;;;;4926772;29;20065;-75
2022/11/12 11:16:20;;;;;;;72.18;31.50;;;;;;;;;;4910709;29;20039;-77
2022/11/12 11:18:49;;;;;;;60.78;28.45;;;;;;;;;;4907693;29;20239;-75
2022/11/12 11:21:24;;;;;;;63.10;32.65;;;;;;;;;;4931767;29;20400;-75
2022/11/12 11:24:02;;;;;;;84.22;48.05;;;;;;;;;;4933583;29;20078;-75
2022/11/12 11:26:31;;;;;;;49.50;30.90;;;;;;;;;;4927593;29;20094;-76
2022/11/12 11:29:16;;;;;;;80.72;42.85;;;;;;;;;;4912957;29;20046;-80
2022/11/12 11:31:55;;;;;;;100.28;48.67;;;;;;;;;;4938030;29;20059;-75
2022/11/12 11:34:24;;;;;;;172.18;92.65;;;;;;;;;;4915629;29;20031;-75
2022/11/12 11:37:02;;;;;;;105.50;55.53;;;;;;;;;;4933299;29;20040;-74
2022/11/12 11:39:28;;;;;;;125.15;62.03;;;;;;;;;;4932298;29;20024;-75
2022/11/12 11:42:12;;;;;;;68.90;43.55;;;;;;;;;;4928291;29;20043;-75
2022/11/12 11:44:51;;;;;;;52.10;33.75;;;;;;;;;;4930423;29;20035;-84
2022/11/12 11:47:35;;;;;;;46.38;30.52;;;;;;;;;;4926761;29;20032;-78
2022/11/12 11:50:07;;;;;;;84.53;53.50;;;;;;;;;;4930907;29;20043;-74
2022/11/12 11:52:33;;;;;;;45.38;31.45;;;;;;;;;;4922733;29;20024;-75
2022/11/12 11:55:00;;;;;;;42.10;29.63;;;;;;;;;;4930028;29;20051;-81
2022/11/12 11:57:29;;;;;;;43.63;29.98;;;;;;;;;;4929287;29;20119;-79
2022/11/12 12:00:05;;;;;;;43.00;30.17;;;;;;;;;;4929783;29;20038;-76
2022/11/12 12:02:34;;;;;;;44.60;29.52;;;;;;;;;;4927074;28;20079;-75
2022/11/12 12:05:10;;;;;;;43.78;30.40;;;;;;;;;;4932801;29;20031;-83
2022/11/12 12:07:45;;;;;;;43.20;28.77;;;;;;;;;;4945360;28;20085;-76
2022/11/12 12:10:11;;;;;;;44.97;29.17;;;;;;;;;;4948069;28;20039;-76
2022/11/12 12:12:44;;;;;;;39.20;27.25;;;;;;;;;;4956278;28;20035;-75
2022/11/12 12:15:25;;;;;;;41.03;29.38;;;;;;;;;;4929834;28;20043;-81
2022/11/12 12:18:19;;;;;;;41.78;27.55;;;;;;;;;;4932848;29;20031;-84
2022/11/12 12:20:54;;;;;;;40.13;28.48;;;;;;;;;;4951447;28;20488;-75
2022/11/12 12:23:33;;;;;;;37.70;28.13;;;;;;;;;;4945156;28;20086;-82
2022/11/12 12:26:00;;;;;;;34.60;24.58;;;;;;;;;;4948361;28;20023;-75
2022/11/12 12:28:35;;;;;;;33.33;23.40;;;;;;;;;;4924113;29;20027;-75
2022/11/12 12:31:05;;;;;;;32.85;23.27;;;;;;;;;;4944961;28;20064;-74
2022/11/12 12:33:31;;;;;;;29.58;22.42;;;;;;;;;;4944936;28;20493;-75
2022/11/12 12:36:03;;;;;;;32.45;23.65;;;;;;;;;;4953814;28;20573;-76
2022/11/12 12:38:39;;;;;;;28.15;22.00;;;;;;;;;;4953950;28;20501;-74
2022/11/12 12:41:12;;;;;;;34.53;24.02;;;;;;;;;;4945723;28;20079;-78
2022/11/12 12:43:41;;;;;;;26.75;21.30;;;;;;;;;;4957033;28;20034;-75
2022/11/12 12:46:10;;;;;;;34.85;24.85;;;;;;;;;;4925475;29;20040;-75
2022/11/12 12:48:38;;;;;;;32.17;22.10;;;;;;;;;;4938902;28;20063;-76
2022/11/12 12:51:04;;;;;;;30.88;21.92;;;;;;;;;;4939518;28;20039;-85
2022/11/12 12:53:31;;;;;;;26.42;18.73;;;;;;;;;;4954938;28;20031;-76
2022/11/12 12:55:59;;;;;;;25.77;20.27;;;;;;;;;;4946808;28;20034;-85
2022/11/12 12:58:29;;;;;;;24.70;19.85;;;;;;;;;;4947160;29;20035;-74
2022/11/12 13:01:03;;;;;;;26.33;18.77;;;;;;;;;;4945964;28;20050;-77
2022/11/12 13:03:49;;;;;;;29.38;21.23;;;;;;;;;;4951028;28;20055;-79
2022/11/12 13:06:24;;;;;;;25.98;19.48;;;;;;;;;;4927249;29;20039;-75
2022/11/12 13:08:56;;;;;;;48.80;30.65;;;;;;;;;;4926692;29;20127;-77
2022/11/12 13:14:35;;;;;;;33.17;24.23;;;;;;;;;;4931206;29;20043;-86
2022/11/12 13:17:08;;;;;;;27.67;21.80;;;;;;;;;;4926996;29;20043;-77
2022/11/12 13:19:34;;;;;;;28.42;20.90;;;;;;;;;;4915417;29;20038;-75
2022/11/12 13:22:22;;;;;;;26.80;20.38;;;;;;;;;;4934687;29;20023;-75
2022/11/12 13:25:06;;;;;;;24.25;19.17;;;;;;;;;;4903834;29;20076;-75
2022/11/12 13:27:42;;;;;;;26.08;18.50;;;;;;;;;;4932920;29;20453;-75
2022/11/12 13:30:16;;;;;;;34.35;20.40;;;;;;;;;;4931712;29;20039;-75
2022/11/12 13:32:45;;;;;;;21.42;17.80;;;;;;;;;;4929513;29;20464;-74
2022/11/12 13:35:30;;;;;;;25.40;18.33;;;;;;;;;;4932285;29;20032;-76
2022/11/12 13:38:09;;;;;;;36.88;23.33;;;;;;;;;;4924375;29;20434;-77
2022/11/12 13:40:40;;;;;;;35.20;25.63;;;;;;;;;;4935922;29;20512;-75
2022/11/12 13:43:09;;;;;;;25.92;18.63;;;;;;;;;;4925996;29;20036;-74
2022/11/12 13:45:44;;;;;;;24.35;18.60;;;;;;;;;;4934674;29;20883;-74
2022/11/12 13:48:16;;;;;;;22.02;17.02;;;;;;;;;;4910347;29;20321;-84
2022/11/12 13:50:48;;;;;;;24.13;18.60;;;;;;;;;;4926968;29;20027;-75
2022/11/12 13:53:18;;;;;;;30.65;19.02;;;;;;;;;;4927001;29;20480;-75
2022/11/12 13:55:48;;;;;;;25.98;18.88;;;;;;;;;;4934619;29;20461;-76
2022/11/12 13:58:26;;;;;;;23.75;18.40;;;;;;;;;;4924667;29;20066;-75
2022/11/12 14:00:53;;;;;;;20.95;16.67;;;;;;;;;;4930331;29;20103;-84
2022/11/12 14:03:19;;;;;;;21.23;16.48;;;;;;;;;;4935930;28;20052;-73
2022/11/12 14:05:47;;;;;;;21.77;16.25;;;;;;;;;;4951879;28;20035;-76
2022/11/12 14:08:22;;;;;;;18.95;15.05;;;;;;;;;;4946995;28;20035;-76
2022/11/12 14:10:54;;;;;;;20.38;16.00;;;;;;;;;;4955500;28;20200;-76
2022/11/12 14:13:26;;;;;;;25.05;16.77;;;;;;;;;;4947509;28;20030;-78
2022/11/12 14:16:07;;;;;;;20.77;15.70;;;;;;;;;;4954024;28;20023;-78
2022/11/12 14:19:00;;;;;;;22.50;14.15;;;;;;;;;;4945936;28;20357;-77
2022/11/12 14:21:26;;;;;;;17.33;13.80;;;;;;;;;;4952087;28;20045;-74
2022/11/12 14:23:52;;;;;;;20.08;13.98;;;;;;;;;;4952485;28;20087;-74
2022/11/12 14:26:35;;;;;;;18.92;15.50;;;;;;;;;;4947800;28;20019;-82
2022/11/12 14:29:01;;;;;;;20.17;14.93;;;;;;;;;;4934740;28;20044;-73
2022/11/12 14:31:27;;;;;;;18.85;14.52;;;;;;;;;;4944922;28;20086;-74
2022/11/12 14:33:53;;;;;;;22.92;15.32;;;;;;;;;;4951848;28;20046;-74
2022/11/12 14:36:19;;;;;;;20.05;15.57;;;;;;;;;;4946797;28;20015;-77
2022/11/12 14:38:47;;;;;;;33.67;24.25;;;;;;;;;;4946271;28;20032;-78
2022/11/12 14:41:30;;;;;;;24.55;18.17;;;;;;;;;;4931407;29;20027;-79
2022/11/12 14:43:58;;;;;;;26.35;19.35;;;;;;;;;;4932102;28;20079;-76
2022/11/12 14:46:26;;;;;;;24.23;19.08;;;;;;;;;;4962102;28;20026;-72
2022/11/12 14:48:58;;;;;;;21.77;17.75;;;;;;;;;;4938479;28;20046;-75